createdAt,value
2016-06-16T00:00:05.115Z,16.1
2016-06-16T00:00:15.115Z,16.1
2016-06-16T00:00:25.115Z,16.1
2016-06-16T00:00:35.131Z,16.1
2016-06-16T00:00:45.131Z,16.1
2016-06-16T00:00:55.131Z,16.1
2016-06-16T00:01:05.150Z,16.1
2016-06-16T00:01:15.150Z,16.1
2016-06-16T00:01:25.166Z,16.1
2016-06-16T00:01:35.166Z,16.1
2016-06-16T00:01:45.166Z,16.1
2016-06-16T00:01:55.182Z,16.1
2016-06-16T00:02:05.185Z,16.1
2016-06-16T00:02:15.247Z,16.1
2016-06-16T00:02:25.200Z,16.1
2016-06-16T00:02:35.200Z,16.1
2016-06-16T00:02:45.216Z,16.1
2016-06-16T00:02:55.325Z,16.1
2016-06-16T00:03:05.219Z,16.1
2016-06-16T00:03:15.235Z,16.1
2016-06-16T00:03:25.235Z,16.1
2016-06-16T00:03:35.250Z,16.2
2016-06-16T00:03:45.250Z,16.1
2016-06-16T00:03:55.250Z,16.1
2016-06-16T00:04:05.268Z,16.2
2016-06-16T00:04:15.330Z,16.1
2016-06-16T00:04:25.268Z,16.2
2016-06-16T00:04:35.283Z,16.1
2016-06-16T00:04:45.283Z,16.1
2016-06-16T00:04:55.283Z,16.1
2016-06-16T00:05:05.302Z,16.2
2016-06-16T00:05:15.302Z,16.2
2016-06-16T00:05:25.302Z,16.2
2016-06-16T00:05:35.318Z,16.1
2016-06-16T00:05:45.318Z,16.1
2016-06-16T00:05:55.333Z,16.1
2016-06-16T00:06:05.337Z,16.1
2016-06-16T00:06:15.337Z,16.1
2016-06-16T00:06:25.353Z,16.1
2016-06-16T00:06:35.353Z,16.1
2016-06-16T00:06:45.353Z,16.1
2016-06-16T00:06:55.369Z,16.2
2016-06-16T00:07:05.372Z,16.1
2016-06-16T00:07:15.372Z,16.1
2016-06-16T00:07:25.387Z,16.2
2016-06-16T00:07:35.387Z,16.1
2016-06-16T00:07:45.387Z,16.1
2016-06-16T00:07:55.403Z,16.1
2016-06-16T00:08:05.406Z,16.1
2016-06-16T00:08:15.421Z,16.1
2016-06-16T00:08:25.421Z,16.2
2016-06-16T00:08:35.437Z,16.1
2016-06-16T00:08:45.437Z,16.2
2016-06-16T00:08:55.437Z,16.2
2016-06-16T00:09:05.456Z,16.1
2016-06-16T00:09:15.456Z,16.2
2016-06-16T00:09:25.456Z,16.2
2016-06-16T00:09:35.456Z,16.2
2016-06-16T00:09:45.471Z,16.2
2016-06-16T00:09:55.487Z,16.2
2016-06-16T00:10:05.490Z,16.2
2016-06-16T00:10:15.490Z,16.2
2016-06-16T00:10:25.490Z,16.2
2016-06-16T00:10:35.506Z,16.2
2016-06-16T00:10:45.537Z,16.2
2016-06-16T00:10:55.506Z,16.2
2016-06-16T00:11:05.524Z,16.1
2016-06-16T00:11:15.524Z,16.2
2016-06-16T00:11:25.540Z,16.2
2016-06-16T00:11:35.571Z,16.2
2016-06-16T00:11:45.540Z,16.1
2016-06-16T00:11:55.555Z,16.1
2016-06-16T00:12:05.558Z,16.2
2016-06-16T00:12:15.558Z,16.2
2016-06-16T00:12:25.590Z,16.1
2016-06-16T00:12:35.574Z,16.2
2016-06-16T00:12:45.590Z,16.2
2016-06-16T00:12:55.605Z,16.1
2016-06-16T00:13:05.609Z,16.1
2016-06-16T00:13:15.609Z,16.1
2016-06-16T00:13:25.609Z,16.1
2016-06-16T00:13:35.609Z,16.1
2016-06-16T00:13:45.625Z,16.1
2016-06-16T00:13:55.625Z,16.1
2016-06-16T00:14:05.643Z,16.1
2016-06-16T00:14:15.643Z,16.1
2016-06-16T00:14:25.658Z,16.1
2016-06-16T00:14:35.658Z,16.1
2016-06-16T00:14:45.674Z,16.1
2016-06-16T00:14:55.658Z,16.1
2016-06-16T00:15:05.677Z,16.1
2016-06-16T00:15:15.692Z,16.1
2016-06-16T00:15:25.692Z,16.1
2016-06-16T00:15:35.692Z,16.2
2016-06-16T00:15:45.692Z,16.1
2016-06-16T00:15:55.708Z,16.1
2016-06-16T00:16:05.712Z,16.1
2016-06-16T00:16:15.712Z,16.2
2016-06-16T00:16:25.728Z,16.1
2016-06-16T00:16:35.728Z,16.2
2016-06-16T00:16:45.743Z,16.2
2016-06-16T00:16:55.775Z,16.2
2016-06-16T00:17:05.746Z,16.2
2016-06-16T00:17:15.762Z,16.2
2016-06-16T00:17:25.762Z,16.2
2016-06-16T00:17:35.762Z,16.3
2016-06-16T00:17:45.778Z,16.1
2016-06-16T00:17:55.778Z,16.2
2016-06-16T00:18:05.795Z,16.2
2016-06-16T00:18:15.795Z,16.1
2016-06-16T00:18:25.795Z,16.2
2016-06-16T00:18:35.795Z,16.2
2016-06-16T00:18:45.811Z,16.3
2016-06-16T00:18:55.811Z,16.3
2016-06-16T00:19:05.830Z,16.2
2016-06-16T00:19:15.830Z,16.2
2016-06-16T00:19:25.846Z,16.2
2016-06-16T00:19:35.846Z,16.2
2016-06-16T00:19:45.846Z,16.2
2016-06-16T00:19:55.862Z,16.2
2016-06-16T00:20:05.865Z,16.2
2016-06-16T00:20:15.865Z,16.2
2016-06-16T00:20:25.880Z,16.1
2016-06-16T00:20:35.880Z,16.2
2016-06-16T00:20:45.880Z,16.2
2016-06-16T00:20:55.896Z,16.1
2016-06-16T00:21:05.899Z,16.2
2016-06-16T00:21:15.915Z,16.2
2016-06-16T00:21:25.915Z,16.2
2016-06-16T00:21:35.915Z,16.1
2016-06-16T00:21:45.915Z,16.2
2016-06-16T00:21:55.930Z,16.2
2016-06-16T00:22:05.933Z,16.2
2016-06-16T00:22:15.949Z,16.2
2016-06-16T00:22:25.949Z,16.1
2016-06-16T00:22:35.964Z,16.1
2016-06-16T00:22:45.964Z,16.2
2016-06-16T00:22:55.964Z,16.2
2016-06-16T00:23:05.983Z,16.1
2016-06-16T00:23:15.983Z,16.1
2016-06-16T00:23:25.983Z,16.1
2016-06-16T00:23:35.999Z,16.2
2016-06-16T00:23:45.999Z,16.2
2016-06-16T00:23:56.014Z,16.2
2016-06-16T00:24:06.017Z,16.3
2016-06-16T00:24:16.017Z,16.2
2016-06-16T00:24:26.033Z,16.2
2016-06-16T00:24:36.033Z,16.2
2016-06-16T00:24:46.049Z,16.2
2016-06-16T00:24:56.049Z,16.2
2016-06-16T00:25:06.052Z,16.2
2016-06-16T00:25:16.052Z,16.1
2016-06-16T00:25:26.067Z,16.1
2016-06-16T00:25:36.083Z,16.1
2016-06-16T00:25:46.208Z,16.1
2016-06-16T00:25:56.083Z,16.1
2016-06-16T00:26:06.101Z,16.2
2016-06-16T00:26:16.148Z,16.1
2016-06-16T00:26:26.101Z,16.2
2016-06-16T00:26:36.101Z,16.1
2016-06-16T00:26:46.117Z,16.1
2016-06-16T00:26:56.117Z,16.1
2016-06-16T00:27:06.120Z,16.1
2016-06-16T00:27:16.136Z,16.1
2016-06-16T00:27:26.136Z,16
2016-06-16T00:27:36.151Z,16.1
2016-06-16T00:27:46.183Z,16
2016-06-16T00:27:56.151Z,15.9
2016-06-16T00:28:06.170Z,16
2016-06-16T00:28:16.170Z,16.1
2016-06-16T00:28:26.170Z,16
2016-06-16T00:28:36.186Z,16
2016-06-16T00:28:46.186Z,16
2016-06-16T00:28:56.186Z,16.1
2016-06-16T00:29:06.204Z,15.9
2016-06-16T00:29:16.204Z,15.9
2016-06-16T00:29:26.220Z,16
2016-06-16T00:29:36.220Z,16
2016-06-16T00:29:46.220Z,16
2016-06-16T00:29:56.235Z,16
2016-06-16T00:30:06.255Z,15.9
2016-06-16T00:30:16.255Z,16
2016-06-16T00:30:26.286Z,15.9
2016-06-16T00:30:36.255Z,16
2016-06-16T00:30:46.271Z,16
2016-06-16T00:30:56.271Z,15.9
2016-06-16T00:31:06.305Z,15.9
2016-06-16T00:31:16.289Z,16
2016-06-16T00:31:26.289Z,16
2016-06-16T00:31:36.289Z,15.9
2016-06-16T00:31:46.305Z,16
2016-06-16T00:31:56.321Z,16
2016-06-16T00:32:06.308Z,15.9
2016-06-16T00:32:16.324Z,16
2016-06-16T00:32:26.324Z,15.9
2016-06-16T00:32:36.339Z,16
2016-06-16T00:32:46.339Z,15.9
2016-06-16T00:32:56.339Z,16
2016-06-16T00:33:06.357Z,16
2016-06-16T00:33:16.357Z,16
2016-06-16T00:33:26.357Z,16
2016-06-16T00:33:36.372Z,16
2016-06-16T00:33:46.388Z,16
2016-06-16T00:33:56.388Z,16
2016-06-16T00:34:06.392Z,15.9
2016-06-16T00:34:16.392Z,15.8
2016-06-16T00:34:26.408Z,15.9
2016-06-16T00:34:36.408Z,16
2016-06-16T00:34:46.408Z,15.9
2016-06-16T00:34:56.423Z,15.9
2016-06-16T00:35:06.442Z,15.9
2016-06-16T00:35:16.442Z,15.9
2016-06-16T00:35:26.442Z,15.9
2016-06-16T00:35:36.473Z,15.9
2016-06-16T00:35:46.458Z,15.9
2016-06-16T00:35:56.458Z,15.9
2016-06-16T00:36:06.476Z,15.9
2016-06-16T00:36:16.476Z,15.9
2016-06-16T00:36:26.476Z,15.9
2016-06-16T00:36:36.492Z,15.9
2016-06-16T00:36:46.492Z,15.9
2016-06-16T00:36:56.492Z,15.9
2016-06-16T00:37:06.526Z,15.9
2016-06-16T00:37:16.526Z,15.8
2016-06-16T00:37:26.526Z,15.9
2016-06-16T00:37:36.526Z,16
2016-06-16T00:37:46.526Z,16
2016-06-16T00:37:56.542Z,16
2016-06-16T00:38:06.576Z,15.9
2016-06-16T00:38:16.545Z,16
2016-06-16T00:38:26.560Z,16
2016-06-16T00:38:36.560Z,16
2016-06-16T00:38:46.560Z,15.9
2016-06-16T00:38:56.576Z,15.9
2016-06-16T00:39:06.579Z,15.9
2016-06-16T00:39:16.579Z,15.9
2016-06-16T00:39:26.595Z,15.9
2016-06-16T00:39:36.595Z,15.9
2016-06-16T00:39:46.610Z,16
2016-06-16T00:39:56.610Z,15.9
2016-06-16T00:40:06.613Z,16
2016-06-16T00:40:16.910Z,16
2016-06-16T00:40:26.629Z,15.9
2016-06-16T00:40:36.629Z,15.9
2016-06-16T00:40:46.644Z,15.9
2016-06-16T00:40:56.644Z,15.9
2016-06-16T00:41:06.648Z,15.9
2016-06-16T00:41:16.664Z,16
2016-06-16T00:41:26.664Z,15.9
2016-06-16T00:41:36.664Z,15.8
2016-06-16T00:41:46.680Z,16
2016-06-16T00:41:56.695Z,15.8
2016-06-16T00:42:06.697Z,15.9
2016-06-16T00:42:16.697Z,15.9
2016-06-16T00:42:26.697Z,15.9
2016-06-16T00:42:36.713Z,15.9
2016-06-16T00:42:46.713Z,15.8
2016-06-16T00:42:56.713Z,15.8
2016-06-16T00:43:06.732Z,15.8
2016-06-16T00:43:16.732Z,15.9
2016-06-16T00:43:26.732Z,15.9
2016-06-16T00:43:36.747Z,16
2016-06-16T00:43:46.747Z,15.9
2016-06-16T00:43:56.763Z,15.9
2016-06-16T00:44:06.798Z,15.9
2016-06-16T00:44:16.767Z,15.9
2016-06-16T00:44:26.782Z,15.9
2016-06-16T00:44:36.829Z,15.9
2016-06-16T00:44:46.782Z,15.9
2016-06-16T00:44:56.798Z,15.9
2016-06-16T00:45:06.801Z,15.9
2016-06-16T00:45:16.817Z,16
2016-06-16T00:45:26.817Z,16
2016-06-16T00:45:36.832Z,15.9
2016-06-16T00:45:46.832Z,15.9
2016-06-16T00:45:56.832Z,16
2016-06-16T00:46:06.834Z,15.9
2016-06-16T00:46:16.850Z,15.9
2016-06-16T00:46:26.850Z,15.9
2016-06-16T00:46:36.912Z,15.9
2016-06-16T00:46:46.866Z,15.9
2016-06-16T00:46:56.866Z,15.9
2016-06-16T00:47:06.870Z,15.9
2016-06-16T00:47:16.885Z,15.9
2016-06-16T00:47:26.885Z,15.9
2016-06-16T00:47:36.901Z,15.9
2016-06-16T00:47:46.901Z,15.9
2016-06-16T00:47:56.916Z,15.9
2016-06-16T00:48:06.935Z,15.9
2016-06-16T00:48:16.919Z,15.9
2016-06-16T00:48:26.919Z,15.9
2016-06-16T00:48:36.935Z,15.9
2016-06-16T00:48:46.951Z,15.9
2016-06-16T00:48:56.951Z,15.9
2016-06-16T00:49:06.954Z,15.9
2016-06-16T00:49:16.954Z,15.9
2016-06-16T00:49:26.969Z,15.8
2016-06-16T00:49:36.969Z,15.8
2016-06-16T00:49:46.985Z,15.9
2016-06-16T00:49:56.985Z,15.9
2016-06-16T00:50:06.988Z,15.9
2016-06-16T00:50:17.004Z,15.9
2016-06-16T00:50:27.004Z,15.9
2016-06-16T00:50:37.004Z,15.8
2016-06-16T00:50:47.019Z,15.9
2016-06-16T00:50:57.019Z,15.9
2016-06-16T00:51:07.069Z,15.9
2016-06-16T00:51:17.038Z,15.8
2016-06-16T00:51:27.053Z,15.8
2016-06-16T00:51:37.053Z,15.8
2016-06-16T00:51:47.085Z,15.8
2016-06-16T00:51:57.053Z,15.7
2016-06-16T00:52:07.072Z,15.8
2016-06-16T00:52:17.072Z,15.9
2016-06-16T00:52:27.135Z,15.8
2016-06-16T00:52:37.088Z,15.8
2016-06-16T00:52:47.103Z,15.7
2016-06-16T00:52:57.088Z,15.8
2016-06-16T00:53:07.122Z,15.9
2016-06-16T00:53:17.106Z,15.8
2016-06-16T00:53:27.122Z,15.8
2016-06-16T00:53:37.122Z,15.8
2016-06-16T00:53:47.153Z,15.8
2016-06-16T00:53:57.138Z,15.8
2016-06-16T00:54:07.141Z,15.8
2016-06-16T00:54:17.141Z,15.8
2016-06-16T00:54:27.156Z,15.9
2016-06-16T00:54:37.156Z,15.8
2016-06-16T00:54:47.156Z,15.9
2016-06-16T00:54:57.187Z,15.8
2016-06-16T00:55:07.176Z,15.9
2016-06-16T00:55:17.191Z,15.9
2016-06-16T00:55:27.191Z,15.8
2016-06-16T00:55:37.316Z,15.9
2016-06-16T00:55:47.207Z,15.8
2016-06-16T00:55:57.207Z,15.7
2016-06-16T00:56:07.584Z,15.7
2016-06-16T00:56:17.225Z,15.8
2016-06-16T00:56:27.303Z,15.8
2016-06-16T00:56:37.240Z,15.7
2016-06-16T00:56:47.240Z,15.8
2016-06-16T00:56:57.256Z,15.7
2016-06-16T00:57:07.260Z,15.7
2016-06-16T00:57:17.260Z,15.7
2016-06-16T00:57:27.276Z,15.9
2016-06-16T00:57:37.541Z,15.8
2016-06-16T00:57:47.276Z,15.8
2016-06-16T00:57:57.291Z,15.8
2016-06-16T00:58:07.294Z,15.8
2016-06-16T00:58:17.357Z,15.8
2016-06-16T00:58:27.310Z,15.8
2016-06-16T00:58:37.310Z,15.8
2016-06-16T00:58:47.325Z,15.8
2016-06-16T00:58:57.357Z,15.8
2016-06-16T00:59:07.328Z,15.8
2016-06-16T00:59:17.360Z,15.8
2016-06-16T00:59:27.344Z,15.8
2016-06-16T00:59:37.360Z,15.7
2016-06-16T00:59:47.360Z,15.8
2016-06-16T00:59:57.360Z,15.8
2016-06-16T01:00:07.393Z,15.8
2016-06-16T01:00:17.393Z,15.8
2016-06-16T01:00:27.377Z,15.7
2016-06-16T01:00:37.377Z,15.8
2016-06-16T01:00:47.393Z,15.8
2016-06-16T01:00:57.393Z,15.8
2016-06-16T01:01:07.397Z,15.9
2016-06-16T01:01:17.413Z,15.8
2016-06-16T01:01:27.444Z,15.9
2016-06-16T01:01:37.428Z,15.9
2016-06-16T01:01:47.428Z,15.9
2016-06-16T01:01:57.444Z,15.8
2016-06-16T01:02:07.447Z,15.8
2016-06-16T01:02:17.447Z,15.8
2016-06-16T01:02:27.462Z,15.9
2016-06-16T01:02:37.462Z,15.8
2016-06-16T01:02:47.462Z,15.8
2016-06-16T01:02:57.478Z,15.9
2016-06-16T01:03:07.481Z,15.8
2016-06-16T01:03:17.481Z,15.8
2016-06-16T01:03:27.497Z,15.9
2016-06-16T01:03:37.497Z,15.9
2016-06-16T01:03:47.497Z,15.9
2016-06-16T01:03:57.512Z,15.9
2016-06-16T01:04:07.515Z,15.9
2016-06-16T01:04:17.531Z,15.8
2016-06-16T01:04:27.562Z,15.9
2016-06-16T01:04:37.547Z,15.8
2016-06-16T01:04:47.547Z,15.9
2016-06-16T01:04:57.547Z,15.7
2016-06-16T01:05:07.550Z,15.8
2016-06-16T01:05:17.565Z,15.7
2016-06-16T01:05:27.565Z,15.8
2016-06-16T01:05:37.565Z,15.9
2016-06-16T01:05:47.581Z,15.9
2016-06-16T01:05:57.596Z,15.7
2016-06-16T01:06:07.584Z,15.8
2016-06-16T01:06:17.599Z,15.7
2016-06-16T01:06:27.615Z,15.7
2016-06-16T01:06:37.615Z,15.7
2016-06-16T01:06:47.615Z,15.7
2016-06-16T01:06:57.631Z,15.8
2016-06-16T01:07:07.634Z,15.7
2016-06-16T01:07:17.634Z,15.7
2016-06-16T01:07:27.634Z,15.8
2016-06-16T01:07:37.649Z,15.7
2016-06-16T01:07:47.649Z,15.7
2016-06-16T01:07:57.649Z,15.7
2016-06-16T01:08:07.669Z,15.7
2016-06-16T01:08:17.685Z,15.7
2016-06-16T01:08:27.685Z,15.8
2016-06-16T01:08:37.685Z,15.8
2016-06-16T01:08:47.700Z,15.8
2016-06-16T01:08:57.700Z,15.7
2016-06-16T01:09:07.702Z,15.7
2016-06-16T01:09:17.702Z,15.8
2016-06-16T01:09:27.718Z,15.7
2016-06-16T01:09:37.765Z,15.7
2016-06-16T01:09:47.733Z,15.7
2016-06-16T01:09:57.749Z,15.7
2016-06-16T01:10:07.737Z,15.7
2016-06-16T01:10:17.784Z,15.7
2016-06-16T01:10:27.816Z,15.8
2016-06-16T01:10:37.753Z,15.7
2016-06-16T01:10:47.769Z,15.7
2016-06-16T01:10:57.769Z,15.8
2016-06-16T01:11:07.787Z,15.7
2016-06-16T01:11:18.397Z,15.7
2016-06-16T01:11:28.209Z,15.7
2016-06-16T01:11:37.803Z,15.7
2016-06-16T01:11:47.803Z,15.7
2016-06-16T01:11:57.803Z,15.7
2016-06-16T01:12:07.822Z,15.7
2016-06-16T01:12:17.884Z,15.7
2016-06-16T01:12:27.822Z,15.8
2016-06-16T01:12:37.837Z,15.7
2016-06-16T01:12:47.837Z,15.7
2016-06-16T01:12:57.853Z,15.7
2016-06-16T01:13:07.855Z,15.7
2016-06-16T01:13:17.870Z,15.7
2016-06-16T01:13:27.917Z,15.7
2016-06-16T01:13:37.870Z,15.7
2016-06-16T01:13:47.933Z,15.7
2016-06-16T01:13:57.886Z,15.7
2016-06-16T01:14:07.906Z,15.7
2016-06-16T01:14:17.906Z,15.7
2016-06-16T01:14:27.906Z,15.6
2016-06-16T01:14:37.906Z,15.8
2016-06-16T01:14:47.921Z,15.8
2016-06-16T01:14:57.921Z,15.8
2016-06-16T01:15:07.987Z,15.7
2016-06-16T01:15:18.002Z,15.7
2016-06-16T01:15:27.940Z,15.8
2016-06-16T01:15:37.956Z,15.7
2016-06-16T01:15:47.956Z,15.8
2016-06-16T01:15:58.018Z,15.7
2016-06-16T01:16:08.005Z,15.8
2016-06-16T01:16:17.974Z,15.8
2016-06-16T01:16:27.974Z,15.7
2016-06-16T01:16:37.990Z,15.7
2016-06-16T01:16:47.990Z,15.7
2016-06-16T01:16:58.005Z,15.7
2016-06-16T01:17:08.008Z,15.8
2016-06-16T01:17:18.008Z,15.7
2016-06-16T01:17:28.008Z,15.7
2016-06-16T01:17:38.024Z,15.8
2016-06-16T01:17:48.024Z,15.7
2016-06-16T01:17:58.040Z,15.8
2016-06-16T01:18:08.058Z,15.7
2016-06-16T01:18:18.074Z,15.7
2016-06-16T01:18:28.058Z,15.7
2016-06-16T01:18:38.074Z,15.7
2016-06-16T01:18:48.058Z,15.8
2016-06-16T01:18:58.074Z,15.7
2016-06-16T01:19:08.077Z,15.7
2016-06-16T01:19:18.093Z,15.7
2016-06-16T01:19:28.093Z,15.8
2016-06-16T01:19:38.093Z,15.7
2016-06-16T01:19:48.108Z,15.8
2016-06-16T01:19:58.108Z,15.9
2016-06-16T01:20:08.128Z,15.7
2016-06-16T01:20:18.128Z,15.8
2016-06-16T01:20:28.143Z,15.8
2016-06-16T01:20:38.143Z,15.7
2016-06-16T01:20:48.159Z,15.7
2016-06-16T01:20:58.159Z,15.7
2016-06-16T01:21:08.145Z,15.7
2016-06-16T01:21:18.161Z,15.7
2016-06-16T01:21:28.161Z,15.7
2016-06-16T01:21:38.177Z,15.8
2016-06-16T01:21:48.177Z,15.7
2016-06-16T01:21:58.177Z,15.7
2016-06-16T01:22:08.195Z,15.8
2016-06-16T01:22:18.195Z,15.7
2016-06-16T01:22:28.211Z,15.7
2016-06-16T01:22:38.211Z,15.7
2016-06-16T01:22:48.211Z,15.6
2016-06-16T01:22:58.227Z,15.7
2016-06-16T01:23:08.230Z,15.6
2016-06-16T01:23:18.230Z,15.6
2016-06-16T01:23:28.245Z,15.7
2016-06-16T01:23:38.245Z,15.7
2016-06-16T01:23:48.245Z,15.7
2016-06-16T01:23:58.261Z,15.7
2016-06-16T01:24:08.264Z,15.6
2016-06-16T01:24:18.279Z,15.6
2016-06-16T01:24:28.279Z,15.7
2016-06-16T01:24:38.279Z,15.7
2016-06-16T01:24:48.295Z,15.6
2016-06-16T01:24:58.295Z,15.7
2016-06-16T01:25:08.299Z,15.7
2016-06-16T01:25:18.315Z,15.8
2016-06-16T01:25:28.315Z,15.7
2016-06-16T01:25:38.330Z,15.7
2016-06-16T01:25:48.330Z,15.7
2016-06-16T01:25:58.346Z,15.7
2016-06-16T01:26:08.443Z,15.7
2016-06-16T01:26:18.365Z,15.7
2016-06-16T01:26:28.411Z,15.7
2016-06-16T01:26:38.365Z,15.7
2016-06-16T01:26:48.365Z,15.7
2016-06-16T01:26:58.380Z,15.7
2016-06-16T01:27:08.383Z,15.7
2016-06-16T01:27:18.383Z,15.7
2016-06-16T01:27:28.399Z,15.7
2016-06-16T01:27:38.399Z,15.7
2016-06-16T01:27:48.430Z,15.8
2016-06-16T01:27:58.414Z,15.8
2016-06-16T01:28:08.416Z,15.7
2016-06-16T01:28:18.432Z,15.7
2016-06-16T01:28:28.432Z,15.7
2016-06-16T01:28:38.432Z,15.7
2016-06-16T01:28:48.448Z,15.7
2016-06-16T01:28:58.448Z,15.7
2016-06-16T01:29:08.452Z,15.7
2016-06-16T01:29:18.483Z,15.7
2016-06-16T01:29:28.467Z,15.7
2016-06-16T01:29:38.467Z,15.7
2016-06-16T01:29:48.483Z,15.7
2016-06-16T01:29:58.483Z,15.8
2016-06-16T01:30:08.486Z,15.7
2016-06-16T01:30:18.533Z,15.7
2016-06-16T01:30:28.502Z,15.7
2016-06-16T01:30:38.517Z,15.7
2016-06-16T01:30:48.517Z,15.7
2016-06-16T01:30:58.517Z,15.7
2016-06-16T01:31:08.536Z,15.7
2016-06-16T01:31:18.536Z,15.7
2016-06-16T01:31:28.551Z,15.7
2016-06-16T01:31:38.551Z,15.7
2016-06-16T01:31:48.567Z,15.7
2016-06-16T01:31:58.567Z,15.7
2016-06-16T01:32:08.601Z,15.6
2016-06-16T01:32:18.570Z,15.8
2016-06-16T01:32:28.586Z,15.7
2016-06-16T01:32:38.586Z,15.6
2016-06-16T01:32:48.601Z,15.7
2016-06-16T01:32:58.601Z,15.6
2016-06-16T01:33:08.604Z,15.5
2016-06-16T01:33:18.620Z,15.6
2016-06-16T01:33:28.651Z,15.6
2016-06-16T01:33:38.620Z,15.6
2016-06-16T01:33:48.636Z,15.7
2016-06-16T01:33:58.636Z,15.6
2016-06-16T01:34:08.717Z,15.6
2016-06-16T01:34:18.654Z,15.6
2016-06-16T01:34:28.654Z,15.7
2016-06-16T01:34:38.670Z,15.6
2016-06-16T01:34:48.670Z,15.6
2016-06-16T01:34:58.670Z,15.7
2016-06-16T01:35:08.688Z,15.7
2016-06-16T01:35:18.688Z,15.6
2016-06-16T01:35:28.688Z,15.7
2016-06-16T01:35:38.704Z,15.6
2016-06-16T01:35:48.704Z,15.5
2016-06-16T01:35:58.720Z,15.5
2016-06-16T01:36:08.723Z,15.6
2016-06-16T01:36:18.723Z,15.5
2016-06-16T01:36:28.723Z,15.6
2016-06-16T01:36:38.738Z,15.6
2016-06-16T01:36:48.738Z,15.6
2016-06-16T01:36:58.738Z,15.5
2016-06-16T01:37:08.757Z,15.6
2016-06-16T01:37:18.757Z,15.6
2016-06-16T01:37:28.773Z,15.6
2016-06-16T01:37:38.773Z,15.5
2016-06-16T01:37:48.788Z,15.6
2016-06-16T01:37:58.788Z,15.6
2016-06-16T01:38:08.792Z,15.6
2016-06-16T01:38:18.792Z,15.6
2016-06-16T01:38:28.808Z,15.5
2016-06-16T01:38:38.855Z,15.6
2016-06-16T01:38:48.823Z,15.5
2016-06-16T01:38:58.823Z,15.6
2016-06-16T01:39:08.825Z,15.4
2016-06-16T01:39:18.841Z,15.5
2016-06-16T01:39:28.841Z,15.5
2016-06-16T01:39:38.857Z,15.5
2016-06-16T01:39:48.857Z,15.5
2016-06-16T01:39:58.872Z,15.4
2016-06-16T01:40:08.875Z,15.5
2016-06-16T01:40:18.875Z,15.4
2016-06-16T01:40:28.875Z,15.5
2016-06-16T01:40:39.047Z,15.4
2016-06-16T01:40:48.891Z,15.5
2016-06-16T01:40:58.891Z,15.5
2016-06-16T01:41:08.911Z,15.4
2016-06-16T01:41:19.598Z,15.4
2016-06-16T01:41:29.348Z,15.4
2016-06-16T01:41:38.926Z,15.4
2016-06-16T01:41:48.926Z,15.4
2016-06-16T01:41:58.942Z,15.4
2016-06-16T01:42:08.945Z,15.4
2016-06-16T01:42:18.945Z,15.4
2016-06-16T01:42:28.960Z,15.4
2016-06-16T01:42:38.960Z,15.4
2016-06-16T01:42:48.976Z,15.3
2016-06-16T01:42:58.976Z,15.3
2016-06-16T01:43:08.979Z,15.4
2016-06-16T01:43:18.995Z,15.4
2016-06-16T01:43:28.995Z,15.4
2016-06-16T01:43:38.995Z,15.4
2016-06-16T01:43:48.995Z,15.4
2016-06-16T01:43:59.026Z,15.4
2016-06-16T01:44:09.013Z,15.4
2016-06-16T01:44:19.029Z,15.4
2016-06-16T01:44:29.029Z,15.4
2016-06-16T01:44:39.029Z,15.5
2016-06-16T01:44:49.029Z,15.4
2016-06-16T01:44:59.045Z,15.4
2016-06-16T01:45:09.063Z,15.4
2016-06-16T01:45:19.094Z,15.4
2016-06-16T01:45:29.079Z,15.4
2016-06-16T01:45:39.079Z,15.3
2016-06-16T01:45:49.079Z,15.4
2016-06-16T01:45:59.079Z,15.3
2016-06-16T01:46:09.082Z,15.4
2016-06-16T01:46:19.097Z,15.4
2016-06-16T01:46:29.097Z,15.4
2016-06-16T01:46:39.113Z,15.4
2016-06-16T01:46:49.113Z,15.4
2016-06-16T01:46:59.129Z,15.4
2016-06-16T01:47:09.210Z,15.4
2016-06-16T01:47:19.132Z,15.3
2016-06-16T01:47:29.147Z,15.4
2016-06-16T01:47:39.147Z,15.4
2016-06-16T01:47:49.163Z,15.4
2016-06-16T01:47:59.163Z,15.4
2016-06-16T01:48:09.166Z,15.4
2016-06-16T01:48:19.166Z,15.4
2016-06-16T01:48:29.197Z,15.4
2016-06-16T01:48:39.182Z,15.4
2016-06-16T01:48:49.182Z,15.3
2016-06-16T01:48:59.197Z,15.3
2016-06-16T01:49:09.217Z,15.3
2016-06-16T01:49:19.217Z,15.3
2016-06-16T01:49:29.232Z,15.3
2016-06-16T01:49:39.232Z,15.3
2016-06-16T01:49:49.232Z,15.3
2016-06-16T01:49:59.232Z,15.3
2016-06-16T01:50:09.234Z,15.2
2016-06-16T01:50:19.250Z,15.2
2016-06-16T01:50:29.281Z,15.3
2016-06-16T01:50:39.266Z,15.3
2016-06-16T01:50:49.266Z,15.3
2016-06-16T01:50:59.266Z,15.3
2016-06-16T01:51:09.284Z,15.3
2016-06-16T01:51:19.316Z,15.3
2016-06-16T01:51:29.284Z,15.2
2016-06-16T01:51:39.300Z,15.3
2016-06-16T01:51:49.300Z,15.3
2016-06-16T01:51:59.300Z,15.3
2016-06-16T01:52:09.320Z,15.3
2016-06-16T01:52:19.320Z,15.3
2016-06-16T01:52:29.335Z,15.4
2016-06-16T01:52:39.335Z,15.3
2016-06-16T01:52:49.335Z,15.4
2016-06-16T01:52:59.351Z,15.3
2016-06-16T01:53:09.354Z,15.3
2016-06-16T01:53:19.354Z,15.3
2016-06-16T01:53:29.369Z,15.4
2016-06-16T01:53:39.385Z,15.4
2016-06-16T01:53:49.369Z,15.3
2016-06-16T01:53:59.385Z,15.4
2016-06-16T01:54:09.403Z,15.3
2016-06-16T01:54:19.512Z,15.3
2016-06-16T01:54:29.403Z,15.3
2016-06-16T01:54:39.403Z,15.4
2016-06-16T01:54:49.418Z,15.3
2016-06-16T01:54:59.434Z,15.5
2016-06-16T01:55:09.421Z,15.3
2016-06-16T01:55:19.437Z,15.4
2016-06-16T01:55:29.437Z,15.4
2016-06-16T01:55:39.453Z,15.3
2016-06-16T01:55:49.453Z,15.3
2016-06-16T01:55:59.468Z,15.3
2016-06-16T01:56:09.472Z,15.4
2016-06-16T01:56:20.394Z,15.4
2016-06-16T01:56:29.707Z,15.4
2016-06-16T01:56:39.488Z,15.4
2016-06-16T01:56:49.488Z,15.3
2016-06-16T01:56:59.503Z,15.4
2016-06-16T01:57:09.506Z,15.4
2016-06-16T01:57:19.506Z,15.4
2016-06-16T01:57:29.522Z,15.3
2016-06-16T01:57:39.522Z,15.3
2016-06-16T01:57:49.553Z,15.3
2016-06-16T01:57:59.538Z,15.3
2016-06-16T01:58:09.541Z,15.4
2016-06-16T01:58:19.541Z,15.3
2016-06-16T01:58:29.556Z,15.3
2016-06-16T01:58:39.556Z,15.4
2016-06-16T01:58:49.556Z,15.3
2016-06-16T01:58:59.572Z,15.2
2016-06-16T01:59:09.575Z,15.3
2016-06-16T01:59:19.575Z,15.2
2016-06-16T01:59:29.591Z,15.2
2016-06-16T01:59:39.591Z,15.3
2016-06-16T01:59:49.606Z,15.3
2016-06-16T01:59:59.606Z,15.2
2016-06-16T02:00:09.640Z,15.2
2016-06-16T02:00:19.625Z,15.3
2016-06-16T02:00:29.625Z,15.2
2016-06-16T02:00:39.625Z,15.2
2016-06-16T02:00:49.640Z,15.3
2016-06-16T02:00:59.640Z,15.2
2016-06-16T02:01:09.643Z,15.3
2016-06-16T02:01:19.659Z,15.3
2016-06-16T02:01:29.659Z,15.3
2016-06-16T02:01:39.675Z,15.2
2016-06-16T02:01:49.675Z,15.3
2016-06-16T02:01:59.675Z,15.3
2016-06-16T02:02:09.694Z,15.3
2016-06-16T02:02:19.694Z,15.3
2016-06-16T02:02:29.694Z,15.3
2016-06-16T02:02:39.741Z,15.3
2016-06-16T02:02:49.710Z,15.3
2016-06-16T02:02:59.726Z,15.2
2016-06-16T02:03:09.728Z,15.2
2016-06-16T02:03:19.728Z,15.3
2016-06-16T02:03:29.743Z,15.3
2016-06-16T02:03:39.743Z,15.3
2016-06-16T02:03:49.759Z,15.3
2016-06-16T02:03:59.759Z,15.3
2016-06-16T02:04:09.763Z,15.3
2016-06-16T02:04:19.763Z,15.4
2016-06-16T02:04:29.778Z,15.3
2016-06-16T02:04:39.778Z,15.3
2016-06-16T02:04:49.778Z,15.3
2016-06-16T02:04:59.794Z,15.3
2016-06-16T02:05:09.796Z,15.2
2016-06-16T02:05:19.812Z,15.3
2016-06-16T02:05:29.827Z,15.2
2016-06-16T02:05:39.812Z,15.3
2016-06-16T02:05:49.827Z,15.3
2016-06-16T02:05:59.827Z,15.3
2016-06-16T02:06:09.831Z,15.3
2016-06-16T02:06:19.847Z,15.2
2016-06-16T02:06:29.863Z,15.3
2016-06-16T02:06:39.863Z,15.2
2016-06-16T02:06:49.863Z,15.3
2016-06-16T02:06:59.863Z,15.3
2016-06-16T02:07:09.880Z,15.3
2016-06-16T02:07:19.880Z,15.3
2016-06-16T02:07:29.880Z,15.2
2016-06-16T02:07:39.896Z,15.2
2016-06-16T02:07:49.911Z,15.3
2016-06-16T02:07:59.911Z,15.2
2016-06-16T02:08:09.915Z,15.3
2016-06-16T02:08:19.915Z,15.4
2016-06-16T02:08:29.915Z,15.3
2016-06-16T02:08:39.931Z,15.2
2016-06-16T02:08:49.962Z,15.3
2016-06-16T02:08:59.947Z,15.3
2016-06-16T02:09:09.950Z,15.2
2016-06-16T02:09:19.950Z,15.2
2016-06-16T02:09:29.965Z,15.2
2016-06-16T02:09:39.997Z,15.3
2016-06-16T02:09:49.981Z,15.3
2016-06-16T02:09:59.981Z,15.3
2016-06-16T02:10:09.984Z,15.2
2016-06-16T02:10:20.000Z,15.2
2016-06-16T02:10:30.000Z,15.2
2016-06-16T02:10:40.000Z,15.2
2016-06-16T02:10:50.015Z,15.3
2016-06-16T02:11:00.031Z,15.3
2016-06-16T02:11:10.034Z,15.3
2016-06-16T02:11:20.424Z,15.2
2016-06-16T02:11:30.034Z,15.2
2016-06-16T02:11:40.596Z,15.2
2016-06-16T02:11:50.049Z,15.3
2016-06-16T02:12:00.049Z,15.3
2016-06-16T02:12:10.068Z,15.2
2016-06-16T02:12:20.068Z,15.3
2016-06-16T02:12:30.068Z,15.3
2016-06-16T02:12:40.084Z,15.3
2016-06-16T02:12:50.084Z,15.2
2016-06-16T02:13:00.084Z,15.3
2016-06-16T02:13:10.102Z,15.2
2016-06-16T02:13:20.102Z,15.4
2016-06-16T02:13:30.118Z,15.3
2016-06-16T02:13:40.134Z,15.3